createdAt,value
2023-05-17T00:01:15.905Z,71.80
2023-05-17T00:03:46.788Z,71.60
2023-05-17T00:06:17.834Z,72.10
2023-05-17T00:08:50.021Z,71.30
2023-05-17T00:11:21.101Z,70.90
2023-05-17T00:13:52.089Z,71.80
2023-05-17T00:16:23.062Z,70.60
2023-05-17T00:18:54.988Z,71.10
2023-05-17T00:21:25.955Z,71.80
2023-05-17T00:23:56.776Z,70.60
2023-05-17T00:26:28.699Z,71.10
2023-05-17T00:28:59.538Z,71.50
2023-05-17T00:31:31.502Z,71.00
2023-05-17T00:34:04.509Z,68.00
2023-05-17T00:36:35.258Z,69.10
2023-05-17T00:39:06.081Z,70.10
2023-05-17T00:41:37.096Z,69.70
2023-05-17T00:44:08.352Z,69.80
2023-05-17T00:46:39.297Z,70.10
2023-05-17T00:49:13.891Z,68.50
2023-05-17T00:51:44.755Z,67.80
2023-05-17T00:54:16.950Z,68.90
2023-05-17T00:56:48.489Z,69.40
2023-05-17T00:59:20.716Z,68.40
2023-05-17T01:01:53.578Z,66.80
2023-05-17T01:04:24.501Z,66.40
2023-05-17T01:06:55.484Z,66.90
2023-05-17T01:09:27.234Z,65.80
2023-05-17T01:12:19.647Z,66.20
2023-05-17T01:15:11.782Z,66.00
2023-05-17T01:18:04.120Z,66.30
2023-05-17T01:20:44.352Z,65.80
2023-05-17T01:23:43.425Z,65.50
2023-05-17T01:26:25.850Z,64.90
2023-05-17T01:28:57.821Z,64.00
2023-05-17T01:31:29.257Z,64.80
2023-05-17T01:34:02.014Z,64.00
2023-05-17T01:36:33.094Z,63.20
2023-05-17T01:39:03.816Z,61.40
2023-05-17T01:41:44.005Z,62.30
2023-05-17T01:44:35.799Z,61.60
2023-05-17T01:47:19.305Z,62.60
2023-05-17T01:49:55.558Z,62.30
2023-05-17T01:52:41.491Z,61.90
2023-05-17T01:55:52.003Z,62.40
2023-05-17T01:58:28.674Z,62.80
2023-05-17T02:01:05.296Z,61.00
2023-05-17T02:06:59.305Z,61.70
2023-05-17T02:09:30.812Z,61.90
2023-05-17T02:12:01.586Z,61.80
2023-05-17T02:14:32.377Z,61.90
2023-05-17T02:17:03.652Z,61.80
2023-05-17T02:19:35.626Z,61.60
2023-05-17T02:22:08.580Z,60.70
2023-05-17T02:24:39.285Z,62.10
2023-05-17T02:27:13.803Z,61.40
2023-05-17T02:29:44.827Z,62.10
2023-05-17T02:32:15.572Z,60.30
2023-05-17T02:34:46.297Z,60.50
2023-05-17T02:37:19.154Z,61.10
2023-05-17T02:39:50.166Z,61.40
2023-05-17T02:42:21.223Z,59.70
2023-05-17T02:44:54.988Z,60.40
2023-05-17T02:47:28.469Z,61.00
2023-05-17T02:50:16.715Z,60.30
2023-05-17T02:52:49.042Z,61.30
2023-05-17T02:55:20.255Z,60.60
2023-05-17T02:57:52.470Z,60.10
2023-05-17T03:00:24.667Z,60.30
2023-05-17T03:02:56.444Z,59.90
2023-05-17T03:05:27.618Z,59.80
2023-05-17T03:07:59.411Z,59.20
2023-05-17T03:10:30.314Z,60.20
2023-05-17T03:13:01.363Z,61.30
2023-05-17T03:15:33.283Z,60.40
2023-05-17T03:18:04.169Z,60.70
2023-05-17T03:20:35.937Z,60.00
2023-05-17T03:23:07.818Z,58.40
2023-05-17T03:25:38.476Z,59.70
2023-05-17T03:28:09.183Z,59.90
2023-05-17T03:30:39.897Z,59.50
2023-05-17T03:33:10.752Z,60.50
2023-05-17T03:35:41.869Z,60.70
2023-05-17T03:38:12.861Z,58.30
2023-05-17T03:40:44.271Z,60.40
2023-05-17T03:43:16.474Z,58.30
2023-05-17T03:45:47.909Z,59.20
2023-05-17T03:48:18.589Z,61.60
2023-05-17T03:50:49.678Z,60.50
2023-05-17T03:53:21.005Z,60.00
2023-05-17T03:55:52.976Z,58.50
2023-05-17T03:58:23.744Z,58.60
2023-05-17T04:00:54.465Z,59.40
2023-05-17T04:03:25.359Z,59.10
2023-05-17T04:05:56.134Z,59.40
2023-05-17T04:08:32.975Z,58.60
2023-05-17T04:11:12.229Z,60.10
2023-05-17T04:13:44.970Z,59.80
2023-05-17T04:16:15.934Z,60.60
2023-05-17T04:18:47.823Z,60.70
2023-05-17T04:21:18.594Z,61.70
2023-05-17T04:23:50.249Z,61.30
2023-05-17T04:26:21.557Z,61.70
2023-05-17T04:28:53.410Z,61.70
2023-05-17T04:31:26.362Z,61.70
2023-05-17T04:33:57.130Z,61.80
2023-05-17T04:36:28.591Z,62.00
2023-05-17T04:39:01.460Z,62.30
2023-05-17T04:41:32.313Z,63.00
2023-05-17T04:44:03.225Z,63.90
2023-05-17T04:46:35.129Z,63.30
2023-05-17T04:49:06.228Z,64.50
2023-05-17T04:51:38.330Z,62.20
2023-05-17T04:54:10.781Z,61.30
2023-05-17T04:56:41.462Z,61.50
2023-05-17T04:59:12.193Z,61.30
2023-05-17T05:01:43.208Z,59.80
2023-05-17T05:04:14.243Z,59.70
2023-05-17T05:06:45.159Z,60.50
2023-05-17T05:09:15.838Z,59.60
2023-05-17T05:11:46.582Z,61.70
2023-05-17T05:14:17.245Z,61.40
2023-05-17T05:16:48.479Z,62.50
2023-05-17T05:19:20.252Z,61.60
2023-05-17T05:21:51.305Z,61.60
2023-05-17T05:24:22.151Z,62.10
2023-05-17T05:26:53.007Z,61.60
2023-05-17T05:29:24.063Z,62.70
2023-05-17T05:31:54.504Z,62.80
2023-05-17T05:34:25.506Z,62.30
2023-05-17T05:36:56.475Z,62.60
2023-05-17T05:39:27.547Z,61.80
2023-05-17T05:41:58.207Z,62.20
2023-05-17T05:44:30.122Z,62.80
2023-05-17T05:47:00.812Z,64.10
2023-05-17T05:49:31.579Z,63.90
2023-05-17T05:52:01.834Z,63.80
2023-05-17T05:54:32.762Z,64.10
2023-05-17T05:57:03.027Z,64.50
2023-05-17T05:59:33.640Z,65.60
2023-05-17T06:02:07.235Z,65.80
2023-05-17T06:04:45.214Z,67.30
2023-05-17T06:07:17.535Z,66.70
2023-05-17T06:09:48.454Z,67.10
2023-05-17T06:12:19.909Z,66.30
2023-05-17T06:14:50.818Z,65.70
2023-05-17T06:17:23.658Z,65.30
2023-05-17T06:19:54.874Z,65.30
2023-05-17T06:22:25.784Z,66.40
2023-05-17T06:24:57.437Z,66.70
2023-05-17T06:27:28.537Z,66.40
2023-05-17T06:29:59.337Z,66.80
2023-05-17T06:32:30.437Z,66.90
2023-05-17T06:35:01.339Z,68.10
2023-05-17T06:37:32.180Z,68.40
2023-05-17T06:40:16.457Z,68.10
2023-05-17T06:42:49.030Z,68.20
2023-05-17T06:45:19.746Z,67.90
2023-05-17T06:47:51.186Z,67.50
2023-05-17T06:50:23.128Z,68.10
2023-05-17T06:52:55.006Z,69.50
2023-05-17T06:55:25.903Z,69.70
2023-05-17T06:57:57.836Z,71.10
2023-05-17T07:00:29.413Z,69.90
2023-05-17T07:03:00.638Z,69.60
2023-05-17T07:05:33.369Z,69.50
2023-05-17T07:08:05.060Z,70.20
2023-05-17T07:10:36.823Z,70.30
2023-05-17T07:13:08.457Z,69.10
2023-05-17T07:15:39.261Z,70.60
2023-05-17T07:18:10.137Z,70.70
2023-05-17T07:20:41.256Z,70.80
2023-05-17T07:23:13.152Z,72.20
2023-05-17T07:25:45.341Z,71.40
2023-05-17T07:28:17.242Z,72.70
2023-05-17T07:30:49.269Z,73.90
2023-05-17T07:33:19.966Z,73.20
2023-05-17T07:35:51.328Z,74.60
2023-05-17T07:38:27.014Z,75.60
2023-05-17T07:40:58.634Z,75.40
2023-05-17T07:43:32.162Z,75.70
2023-05-17T07:46:05.725Z,76.10
2023-05-17T07:48:36.604Z,76.40
2023-05-17T07:51:10.543Z,76.60
2023-05-17T07:53:44.420Z,77.00
2023-05-17T07:56:15.203Z,76.50
2023-05-17T07:58:46.310Z,76.20
2023-05-17T08:01:17.486Z,77.50
2023-05-17T08:03:50.229Z,77.70
2023-05-17T08:06:22.593Z,78.00
2023-05-17T08:08:53.806Z,78.80
2023-05-17T08:11:27.328Z,78.80
2023-05-17T08:13:58.321Z,79.10
2023-05-17T08:16:29.561Z,79.20
2023-05-17T08:19:02.163Z,79.40
2023-05-17T08:21:36.941Z,79.70
2023-05-17T08:24:07.888Z,79.90
2023-05-17T08:26:39.770Z,79.90
2023-05-17T08:29:12.143Z,80.80
2023-05-17T08:31:42.977Z,81.50
2023-05-17T08:34:15.020Z,81.00
2023-05-17T08:36:46.748Z,81.10
2023-05-17T08:39:18.332Z,81.10
2023-05-17T08:41:52.126Z,82.20
2023-05-17T08:44:25.516Z,82.80
2023-05-17T08:46:59.452Z,83.20
2023-05-17T08:49:36.206Z,83.30
2023-05-17T08:52:12.278Z,82.80
2023-05-17T08:54:44.699Z,83.30
2023-05-17T08:57:18.265Z,83.50
2023-05-17T08:59:50.450Z,83.90
2023-05-17T09:02:22.640Z,84.00
2023-05-17T09:04:58.147Z,84.60
2023-05-17T09:07:31.514Z,84.80
2023-05-17T09:10:03.358Z,84.40
2023-05-17T09:12:38.827Z,84.60
2023-05-17T09:15:21.939Z,84.90
2023-05-17T09:17:58.317Z,84.80
2023-05-17T09:20:39.814Z,85.30
2023-05-17T09:23:15.376Z,86.00
2023-05-17T09:25:53.058Z,85.00
2023-05-17T09:28:24.296Z,85.90
2023-05-17T09:30:55.081Z,85.30
2023-05-17T09:33:27.428Z,85.30
2023-05-17T09:35:58.920Z,85.10
2023-05-17T09:38:33.817Z,84.50
2023-05-17T09:41:05.069Z,85.70
2023-05-17T09:43:36.134Z,85.70
2023-05-17T09:46:07.810Z,85.50
2023-05-17T09:48:42.125Z,86.10
2023-05-17T09:51:13.280Z,86.20
2023-05-17T09:53:44.517Z,86.80
2023-05-17T09:56:15.669Z,86.20
2023-05-17T09:58:46.460Z,87.00
2023-05-17T10:01:18.089Z,86.10
2023-05-17T10:03:50.169Z,87.00
2023-05-17T10:06:33.197Z,86.60
2023-05-17T10:09:18.164Z,87.50
2023-05-17T10:11:50.376Z,86.80
2023-05-17T10:14:26.280Z,88.20
2023-05-17T10:16:57.478Z,86.80
2023-05-17T10:19:31.402Z,87.20
2023-05-17T10:22:21.753Z,88.00
2023-05-17T10:24:55.045Z,87.30
2023-05-17T10:27:26.754Z,88.10
2023-05-17T10:29:57.862Z,88.70
2023-05-17T10:32:31.560Z,88.20
2023-05-17T10:35:11.378Z,88.10
2023-05-17T10:37:45.232Z,89.00
2023-05-17T10:40:18.931Z,88.10
2023-05-17T10:42:58.465Z,87.80
2023-05-17T10:45:30.943Z,88.10
2023-05-17T10:48:07.883Z,88.60
2023-05-17T10:50:50.605Z,88.30
2023-05-17T10:53:31.797Z,88.90
2023-05-17T10:56:02.941Z,88.80
2023-05-17T10:58:33.747Z,89.40
2023-05-17T11:01:07.194Z,89.40
2023-05-17T11:03:38.793Z,89.20
2023-05-17T11:06:25.792Z,88.10
2023-05-17T11:09:11.593Z,88.70
2023-05-17T11:12:08.816Z,88.90
2023-05-17T11:14:57.783Z,89.70
2023-05-17T11:17:31.126Z,89.10
2023-05-17T11:20:13.905Z,89.20
2023-05-17T11:22:46.983Z,89.90
2023-05-17T11:25:20.543Z,89.20
2023-05-17T11:27:54.054Z,89.80
2023-05-17T11:30:33.559Z,89.70
2023-05-17T11:33:13.550Z,89.70
2023-05-17T11:35:49.587Z,90.30
2023-05-17T11:38:29.255Z,90.50
2023-05-17T11:41:00.704Z,90.10
2023-05-17T11:43:33.610Z,90.30
2023-05-17T11:46:05.878Z,90.60
2023-05-17T11:48:37.605Z,89.80
2023-05-17T11:51:08.949Z,90.10
2023-05-17T11:53:40.429Z,89.90
2023-05-17T11:56:12.053Z,90.10
2023-05-17T11:58:44.837Z,90.40
2023-05-17T12:01:15.577Z,90.20
2023-05-17T12:03:46.658Z,90.40
2023-05-17T12:06:20.660Z,90.00
2023-05-17T12:08:51.668Z,90.60
2023-05-17T12:11:25.638Z,90.80
2023-05-17T12:13:56.720Z,90.30
2023-05-17T12:16:27.951Z,90.50
2023-05-17T12:19:00.717Z,91.30
2023-05-17T12:21:31.597Z,90.90
2023-05-17T12:24:03.359Z,90.60
2023-05-17T12:26:34.033Z,90.20
2023-05-17T12:29:05.063Z,90.40
2023-05-17T12:31:43.084Z,90.60
2023-05-17T12:34:19.102Z,91.10
2023-05-17T12:36:50.525Z,90.80
2023-05-17T12:39:25.815Z,91.00
2023-05-17T12:41:59.212Z,90.60
2023-05-17T12:44:29.995Z,90.70
2023-05-17T12:47:04.740Z,91.10
2023-05-17T12:49:42.252Z,90.60
2023-05-17T12:52:13.888Z,90.40
2023-05-17T12:54:45.302Z,90.50
2023-05-17T12:57:18.085Z,90.50
2023-05-17T12:59:55.196Z,91.20
2023-05-17T13:02:25.889Z,91.10
2023-05-17T13:04:57.357Z,91.00
2023-05-17T13:07:28.357Z,90.50
2023-05-17T13:09:58.761Z,90.50
2023-05-17T13:12:29.095Z,90.20
2023-05-17T13:14:59.627Z,90.50
2023-05-17T13:17:46.302Z,90.80
2023-05-17T13:20:16.822Z,90.50
2023-05-17T13:22:53.707Z,90.70
2023-05-17T13:25:24.069Z,90.80
2023-05-17T13:27:57.443Z,91.20
2023-05-17T13:30:27.933Z,90.70
2023-05-17T13:32:58.633Z,90.70
2023-05-17T13:35:29.124Z,90.80
2023-05-17T13:37:59.603Z,90.80
2023-05-17T13:40:30.099Z,90.60
2023-05-17T13:43:00.566Z,90.80
2023-05-17T13:45:31.573Z,90.80
2023-05-17T13:48:04.238Z,90.80
2023-05-17T13:50:34.815Z,91.00
2023-05-17T13:53:06.561Z,90.80
2023-05-17T13:55:36.983Z,90.90
2023-05-17T13:58:07.846Z,90.90
2023-05-17T14:00:40.123Z,91.20
2023-05-17T14:03:11.730Z,91.20
2023-05-17T14:05:43.341Z,91.00
2023-05-17T14:08:15.187Z,91.80
2023-05-17T14:10:46.812Z,91.70
2023-05-17T14:13:18.276Z,90.80
2023-05-17T14:15:48.942Z,91.30
2023-05-17T14:18:19.336Z,91.00
2023-05-17T14:20:49.798Z,91.50
2023-05-17T14:23:20.061Z,91.50
2023-05-17T14:25:53.604Z,91.20
2023-05-17T14:28:23.920Z,91.30
2023-05-17T14:30:54.989Z,92.00
2023-05-17T14:33:25.846Z,91.90
2023-05-17T14:35:56.729Z,91.20
2023-05-17T14:38:36.835Z,90.90
2023-05-17T14:41:09.671Z,91.30
2023-05-17T14:43:39.980Z,92.30
2023-05-17T14:46:10.273Z,91.70
2023-05-17T14:48:40.624Z,91.50
2023-05-17T14:51:11.726Z,90.80
2023-05-17T14:53:42.579Z,91.50
2023-05-17T14:56:13.474Z,91.00
2023-05-17T14:58:44.835Z,91.80
2023-05-17T15:01:15.434Z,91.10
2023-05-17T15:03:45.982Z,91.50
2023-05-17T15:06:16.439Z,91.60
2023-05-17T15:08:47.367Z,91.60
2023-05-17T15:11:17.725Z,91.40
2023-05-17T15:13:48.445Z,91.40
2023-05-17T15:16:18.913Z,91.20
2023-05-17T15:18:49.446Z,91.00
2023-05-17T15:21:20.628Z,91.10
2023-05-17T15:23:52.394Z,91.10
2023-05-17T15:26:23.322Z,92.10
2023-05-17T15:28:53.918Z,92.00
2023-05-17T15:31:27.989Z,92.10
2023-05-17T15:33:59.456Z,91.60
2023-05-17T15:36:30.262Z,91.50
2023-05-17T15:39:01.850Z,91.70
2023-05-17T15:41:35.650Z,92.00
2023-05-17T15:44:08.773Z,91.70
2023-05-17T15:46:39.632Z,91.80
2023-05-17T15:49:10.005Z,92.20
2023-05-17T15:51:40.362Z,91.20
2023-05-17T15:54:10.752Z,91.40
2023-05-17T15:56:41.521Z,91.40
2023-05-17T15:59:12.544Z,91.20
2023-05-17T16:01:47.876Z,91.10
2023-05-17T16:04:20.091Z,91.60
2023-05-17T16:06:52.209Z,91.90
2023-05-17T16:09:22.482Z,91.50
2023-05-17T16:11:52.865Z,91.40
2023-05-17T16:14:23.113Z,92.20
2023-05-17T16:16:54.528Z,91.70
2023-05-17T16:19:27.854Z,91.90
2023-05-17T16:21:59.589Z,91.70
2023-05-17T16:24:29.903Z,92.10
2023-05-17T16:27:00.897Z,91.90
2023-05-17T16:29:31.244Z,91.60
2023-05-17T16:32:01.805Z,92.00
2023-05-17T16:34:32.179Z,92.10
2023-05-17T16:37:02.596Z,92.00
2023-05-17T16:39:33.345Z,91.40
2023-05-17T16:42:04.244Z,91.40
2023-05-17T16:44:35.070Z,91.80
2023-05-17T16:47:05.514Z,92.40
2023-05-17T16:49:38.133Z,91.80
2023-05-17T16:52:09.145Z,91.70
2023-05-17T16:54:40.376Z,91.60
2023-05-17T16:57:10.872Z,91.40
2023-05-17T16:59:41.165Z,91.60
2023-05-17T17:02:11.669Z,91.50
2023-05-17T17:04:42.197Z,91.30
2023-05-17T17:07:13.848Z,91.70
2023-05-17T17:09:44.567Z,92.00
2023-05-17T17:12:25.556Z,91.50
2023-05-17T17:14:57.918Z,91.80
2023-05-17T17:17:29.312Z,91.90
2023-05-17T17:20:00.576Z,92.30
2023-05-17T17:22:31.209Z,92.10
2023-05-17T17:25:01.953Z,92.20
2023-05-17T17:27:32.769Z,92.10
2023-05-17T17:30:03.826Z,92.60
2023-05-17T17:32:35.222Z,93.00
2023-05-17T17:35:05.914Z,92.80
2023-05-17T17:37:36.259Z,92.80
2023-05-17T17:40:06.891Z,93.10
2023-05-17T17:42:37.947Z,92.70
2023-05-17T17:45:10.701Z,92.80
2023-05-17T17:47:41.159Z,93.20
2023-05-17T17:50:12.174Z,93.30
2023-05-17T17:52:42.818Z,93.40
2023-05-17T17:55:14.929Z,93.60
2023-05-17T17:57:45.521Z,93.70
2023-05-17T18:00:17.780Z,93.60
2023-05-17T18:02:49.669Z,93.90
2023-05-17T18:05:20.184Z,93.80
2023-05-17T18:07:50.595Z,93.20
2023-05-17T18:10:21.975Z,93.00
2023-05-17T18:12:52.639Z,93.20
2023-05-17T18:15:23.404Z,93.10
2023-05-17T18:17:54.050Z,93.10
2023-05-17T18:20:24.503Z,92.60
2023-05-17T18:22:54.995Z,92.60
2023-05-17T18:25:27.451Z,92.90
2023-05-17T18:27:57.954Z,93.30
2023-05-17T18:30:28.414Z,92.30
2023-05-17T18:32:59.232Z,92.20
2023-05-17T18:35:29.826Z,92.40
2023-05-17T18:38:01.699Z,92.20
2023-05-17T18:40:32.557Z,92.60
2023-05-17T18:43:03.521Z,92.70
2023-05-17T18:45:37.902Z,92.10
2023-05-17T18:48:08.584Z,92.90
2023-05-17T18:50:38.932Z,92.60
2023-05-17T18:53:10.898Z,92.40
2023-05-17T18:55:41.391Z,92.40
2023-05-17T18:58:12.094Z,92.20
2023-05-17T19:00:42.632Z,93.10
2023-05-17T19:03:13.036Z,92.60
2023-05-17T19:05:43.559Z,92.80
2023-05-17T19:08:15.194Z,92.60
2023-05-17T19:10:48.833Z,92.60
2023-05-17T19:13:19.588Z,92.80
2023-05-17T19:15:50.248Z,92.30
2023-05-17T19:18:20.684Z,92.30
2023-05-17T19:20:51.472Z,92.30
2023-05-17T19:23:23.266Z,92.10
2023-05-17T19:25:55.194Z,92.10
2023-05-17T19:28:25.731Z,92.10
2023-05-17T19:30:56.171Z,93.20
2023-05-17T19:33:27.045Z,92.90
2023-05-17T19:35:57.435Z,92.30
2023-05-17T19:38:30.724Z,92.30
2023-05-17T19:41:01.768Z,92.30
2023-05-17T19:43:33.950Z,92.60
2023-05-17T19:46:05.863Z,93.20
2023-05-17T19:48:36.197Z,93.60
2023-05-17T19:51:07.066Z,93.60
2023-05-17T19:53:51.348Z,93.70
2023-05-17T19:56:25.772Z,93.80
2023-05-17T19:58:56.070Z,93.50
2023-05-17T20:01:26.441Z,92.60
2023-05-17T20:03:57.044Z,93.10
2023-05-17T20:06:27.600Z,93.40
2023-05-17T20:08:58.039Z,93.00
2023-05-17T20:11:28.679Z,92.70
2023-05-17T20:13:59.315Z,92.70
2023-05-17T20:16:31.372Z,92.80
2023-05-17T20:19:02.653Z,93.00
2023-05-17T20:21:33.670Z,93.60
2023-05-17T20:24:06.044Z,93.50
2023-05-17T20:26:39.974Z,93.60
2023-05-17T20:29:12.069Z,93.80
2023-05-17T20:31:44.056Z,93.90
2023-05-17T20:34:15.076Z,93.70
2023-05-17T20:36:47.021Z,93.80
2023-05-17T20:39:17.926Z,93.80
2023-05-17T20:41:50.888Z,93.80
2023-05-17T20:44:22.371Z,93.40
2023-05-17T20:46:54.064Z,93.50
2023-05-17T20:49:26.839Z,93.70
2023-05-17T20:52:08.687Z,94.00
2023-05-17T20:54:40.130Z,93.30
2023-05-17T20:57:13.277Z,93.00
2023-05-17T20:59:45.456Z,92.90
2023-05-17T21:02:16.438Z,92.90
2023-05-17T21:04:47.370Z,92.70
2023-05-17T21:07:19.590Z,92.80
2023-05-17T21:09:50.559Z,92.40
2023-05-17T21:12:23.170Z,92.00
2023-05-17T21:15:14.585Z,93.20
2023-05-17T21:17:48.930Z,93.20
2023-05-17T21:20:21.460Z,93.30
2023-05-17T21:22:53.733Z,93.40
2023-05-17T21:25:24.592Z,93.20
2023-05-17T21:27:57.291Z,92.80
2023-05-17T21:30:28.927Z,92.90
2023-05-17T21:32:59.942Z,92.80
2023-05-17T21:35:30.950Z,92.70
2023-05-17T21:38:02.085Z,92.90
2023-05-17T21:41:29.288Z,92.30
2023-05-17T21:43:26.586Z,93.00
2023-05-17T21:45:57.487Z,93.30
2023-05-17T21:48:28.321Z,93.90
2023-05-17T21:50:59.729Z,94.00
2023-05-17T21:53:30.425Z,93.40
2023-05-17T21:56:03.023Z,93.50
2023-05-17T21:58:34.757Z,92.90
2023-05-17T22:01:05.585Z,93.10
2023-05-17T22:03:37.562Z,92.80
2023-05-17T22:06:09.115Z,93.20
2023-05-17T22:08:45.551Z,93.20
2023-05-17T22:11:17.356Z,93.30
2023-05-17T22:13:49.502Z,93.00
2023-05-17T22:16:26.842Z,93.00
2023-05-17T22:18:57.189Z,93.20
2023-05-17T22:21:28.402Z,93.10
2023-05-17T22:23:59.460Z,93.60
2023-05-17T22:26:30.327Z,92.90
2023-05-17T22:29:01.326Z,92.70
2023-05-17T22:31:32.352Z,92.30
2023-05-17T22:34:02.721Z,92.40
2023-05-17T22:36:33.916Z,92.60
2023-05-17T22:39:04.926Z,92.10
2023-05-17T22:41:36.205Z,91.70
2023-05-17T22:44:06.672Z,90.80
2023-05-17T22:46:38.042Z,90.20
2023-05-17T22:49:09.283Z,89.60
2023-05-17T22:51:41.035Z,89.10
2023-05-17T22:54:11.380Z,88.80
2023-05-17T22:56:42.387Z,87.80
2023-05-17T22:59:12.860Z,86.60
2023-05-17T23:01:43.225Z,86.20
2023-05-17T23:04:14.182Z,86.90
2023-05-17T23:06:44.466Z,87.50
2023-05-17T23:09:15.107Z,87.60
2023-05-17T23:11:45.885Z,87.20
2023-05-17T23:14:17.074Z,87.50
2023-05-17T23:16:48.025Z,86.50
2023-05-17T23:19:22.977Z,86.30
2023-05-17T23:21:53.706Z,86.10
2023-05-17T23:24:27.960Z,86.10
2023-05-17T23:26:59.761Z,84.80
2023-05-17T23:29:30.509Z,85.00
2023-05-17T23:32:01.382Z,84.40
2023-05-17T23:34:32.212Z,85.10
2023-05-17T23:37:04.050Z,84.80
2023-05-17T23:39:35.057Z,83.90
2023-05-17T23:42:06.565Z,84.70
2023-05-17T23:44:38.205Z,83.60
2023-05-17T23:47:12.086Z,83.40
2023-05-17T23:49:43.605Z,82.80
2023-05-17T23:52:14.327Z,81.00
2023-05-17T23:54:45.337Z,81.20
2023-05-17T23:57:17.356Z,80.40
2023-05-17T23:59:49.025Z,80.70
